createdAt,value
2023-04-25T00:00:11.537Z,93.60
2023-04-25T00:02:20.662Z,93.80
2023-04-25T00:04:26.857Z,93.90
2023-04-25T00:06:32.939Z,93.80
2023-04-25T00:08:38.348Z,93.60
2023-04-25T00:10:43.444Z,93.70
2023-04-25T00:12:48.963Z,93.70
2023-04-25T00:14:57.974Z,94.00
2023-04-25T00:17:03.722Z,93.80
2023-04-25T00:19:10.706Z,93.40
2023-04-25T00:21:16.087Z,93.50
2023-04-25T00:23:21.622Z,93.80
2023-04-25T00:25:27.247Z,93.70
2023-04-25T00:27:32.325Z,93.00
2023-04-25T00:29:37.852Z,93.10
2023-04-25T00:31:46.687Z,93.30
2023-04-25T00:33:52.349Z,92.50
2023-04-25T00:35:58.338Z,92.00
2023-04-25T00:38:03.569Z,92.00
2023-04-25T00:40:11.588Z,92.30
2023-04-25T00:42:17.509Z,92.50
2023-04-25T00:44:24.241Z,92.70
2023-04-25T00:46:29.656Z,92.80
2023-04-25T00:48:38.050Z,93.10
2023-04-25T00:50:43.757Z,93.60
2023-04-25T00:52:49.995Z,93.90
2023-04-25T00:54:55.176Z,93.60
2023-04-25T00:57:02.092Z,93.40
2023-04-25T00:59:07.683Z,93.40
2023-04-25T01:01:13.856Z,93.70
2023-04-25T01:03:21.532Z,93.90
2023-04-25T01:05:29.395Z,94.00
2023-04-25T01:07:38.065Z,94.30
2023-04-25T01:09:44.681Z,94.20
2023-04-25T01:11:49.864Z,94.10
2023-04-25T01:13:55.403Z,94.10
2023-04-25T01:16:00.604Z,94.00
2023-04-25T01:18:06.605Z,94.30
2023-04-25T01:20:15.255Z,94.20
2023-04-25T01:22:23.863Z,94.10
2023-04-25T01:24:30.534Z,94.40
2023-04-25T01:26:37.723Z,94.50
2023-04-25T01:28:44.857Z,94.50
2023-04-25T01:30:51.315Z,94.40
2023-04-25T01:32:58.902Z,94.30
2023-04-25T01:35:04.093Z,94.30
2023-04-25T01:37:09.519Z,93.90
2023-04-25T01:39:17.349Z,94.00
2023-04-25T01:41:24.659Z,94.00
2023-04-25T01:43:30.357Z,94.10
2023-04-25T01:45:37.523Z,93.70
2023-04-25T01:47:44.879Z,93.70
2023-04-25T01:49:50.089Z,94.20
2023-04-25T01:51:55.281Z,94.30
2023-04-25T01:54:01.484Z,94.20
2023-04-25T01:56:11.234Z,93.90
2023-04-25T01:58:17.677Z,93.60
2023-04-25T02:00:36.693Z,93.60
2023-04-25T02:02:43.217Z,93.20
2023-04-25T02:04:59.445Z,93.10
2023-04-25T02:07:07.431Z,93.20
2023-04-25T02:09:22.475Z,93.10
2023-04-25T02:11:34.516Z,93.00
2023-04-25T02:13:58.007Z,92.60
2023-04-25T02:16:27.425Z,92.80
2023-04-25T02:18:33.231Z,93.10
2023-04-25T02:20:38.779Z,93.20
2023-04-25T02:22:44.028Z,93.30
2023-04-25T02:24:49.991Z,93.30
2023-04-25T02:26:58.139Z,93.60
2023-04-25T02:29:03.250Z,94.10
2023-04-25T02:31:09.454Z,93.60
2023-04-25T02:33:14.648Z,91.90
2023-04-25T02:35:19.829Z,92.40
2023-04-25T02:37:25.024Z,92.80
2023-04-25T02:39:30.104Z,92.90
2023-04-25T02:41:35.208Z,92.80
2023-04-25T02:43:43.965Z,93.00
2023-04-25T02:45:49.279Z,89.70
2023-04-25T02:47:55.275Z,90.40
2023-04-25T02:50:00.425Z,91.00
2023-04-25T02:52:05.776Z,91.30
2023-04-25T02:54:11.115Z,91.90
2023-04-25T02:56:20.428Z,91.20
2023-04-25T02:58:26.000Z,91.10
2023-04-25T03:00:35.213Z,90.90
2023-04-25T03:02:40.833Z,89.80
2023-04-25T03:04:46.070Z,89.80
2023-04-25T03:06:51.574Z,89.50
2023-04-25T03:08:59.721Z,89.80
2023-04-25T03:11:05.188Z,90.20
2023-04-25T03:13:10.317Z,90.30
2023-04-25T03:15:18.214Z,90.00
2023-04-25T03:17:25.903Z,88.80
2023-04-25T03:19:31.581Z,89.20
2023-04-25T03:21:39.935Z,88.00
2023-04-25T03:23:45.022Z,89.20
2023-04-25T03:25:50.977Z,89.00
2023-04-25T03:27:56.611Z,89.10
2023-04-25T03:30:01.806Z,88.90
2023-04-25T03:32:08.894Z,88.60
2023-04-25T03:34:17.371Z,88.10
2023-04-25T03:36:23.181Z,88.10
2023-04-25T03:38:28.351Z,87.80
2023-04-25T03:40:34.455Z,88.30
2023-04-25T03:43:01.895Z,87.90
2023-04-25T03:45:08.530Z,88.70
2023-04-25T03:47:13.695Z,88.80
2023-04-25T03:49:21.385Z,90.00
2023-04-25T03:51:35.899Z,89.90
2023-04-25T03:53:41.889Z,89.90
2023-04-25T03:55:58.781Z,89.60
2023-04-25T03:58:09.339Z,91.60
2023-04-25T04:00:18.739Z,92.20
2023-04-25T04:02:23.977Z,92.90
2023-04-25T04:04:34.908Z,92.80
2023-04-25T04:06:41.170Z,92.90
2023-04-25T04:08:52.660Z,92.90
2023-04-25T04:10:58.497Z,92.30
2023-04-25T04:13:05.110Z,92.40
2023-04-25T04:15:13.809Z,91.80
2023-04-25T04:17:20.214Z,91.90
2023-04-25T04:19:25.426Z,92.00
2023-04-25T04:21:47.204Z,92.10
2023-04-25T04:26:01.192Z,92.40
2023-04-25T04:28:07.145Z,92.40
2023-04-25T04:30:30.657Z,92.60
2023-04-25T04:32:38.835Z,93.00
2023-04-25T04:34:45.729Z,92.80
2023-04-25T04:36:56.671Z,93.00
2023-04-25T04:39:02.835Z,93.00
2023-04-25T04:41:15.021Z,93.30
2023-04-25T04:43:29.700Z,93.30
2023-04-25T04:45:46.851Z,93.50
2023-04-25T04:48:15.672Z,93.70
2023-04-25T04:50:38.094Z,92.90
2023-04-25T04:53:04.418Z,91.10
2023-04-25T04:55:22.187Z,90.00
2023-04-25T04:57:41.739Z,89.30
2023-04-25T05:00:19.485Z,89.50
2023-04-25T05:02:42.299Z,88.30
2023-04-25T05:05:11.471Z,88.60
2023-04-25T05:07:32.560Z,88.00
2023-04-25T05:10:12.478Z,87.90
2023-04-25T05:12:37.198Z,87.00
2023-04-25T05:15:17.112Z,86.70
2023-04-25T05:17:41.498Z,87.40
2023-04-25T05:20:25.333Z,87.30
2023-04-25T05:22:53.583Z,87.40
2023-04-25T05:25:36.723Z,87.10
2023-04-25T05:28:02.467Z,87.40
2023-04-25T05:30:19.540Z,86.50
2023-04-25T05:32:51.955Z,86.40
2023-04-25T05:34:57.659Z,85.60
2023-04-25T05:37:06.473Z,85.00
2023-04-25T05:39:15.859Z,86.10
2023-04-25T05:41:44.360Z,86.40
2023-04-25T05:44:12.743Z,85.40
2023-04-25T05:46:25.794Z,85.80
2023-04-25T05:48:47.452Z,85.30
2023-04-25T05:51:19.602Z,85.50
2023-04-25T05:53:56.900Z,85.50
2023-04-25T05:56:02.036Z,85.40
2023-04-25T05:58:10.624Z,85.80
2023-04-25T06:00:20.021Z,84.20
2023-04-25T06:02:27.922Z,85.90
2023-04-25T06:04:34.111Z,84.00
2023-04-25T06:06:40.253Z,84.40
2023-04-25T06:08:46.435Z,83.70
2023-04-25T06:10:51.742Z,83.90
2023-04-25T06:12:58.061Z,84.90
2023-04-25T06:15:20.170Z,86.30
2023-04-25T06:17:34.023Z,84.20
2023-04-25T06:19:41.024Z,81.80
2023-04-25T06:21:48.661Z,82.40
2023-04-25T06:23:54.079Z,84.20
2023-04-25T06:26:05.839Z,84.80
2023-04-25T06:28:12.625Z,84.70
2023-04-25T06:30:24.644Z,86.10
2023-04-25T06:32:31.909Z,81.40
2023-04-25T06:34:39.042Z,81.10
2023-04-25T06:36:47.283Z,79.30
2023-04-25T06:38:54.657Z,81.90
2023-04-25T06:41:00.130Z,81.30
2023-04-25T06:43:09.952Z,80.60
2023-04-25T06:45:36.882Z,81.70
2023-04-25T06:47:42.713Z,80.20
2023-04-25T06:49:47.907Z,80.50
2023-04-25T06:51:53.651Z,80.90
2023-04-25T06:53:58.967Z,82.30
2023-04-25T06:56:14.975Z,78.90
2023-04-25T06:58:28.938Z,78.50
2023-04-25T07:01:02.243Z,79.40
2023-04-25T07:03:07.960Z,82.20
2023-04-25T07:05:13.592Z,79.70
2023-04-25T07:07:18.711Z,79.80
2023-04-25T07:09:31.338Z,78.70
2023-04-25T07:11:37.994Z,79.60
2023-04-25T07:13:43.404Z,79.70
2023-04-25T07:15:49.330Z,79.20
2023-04-25T07:17:59.052Z,79.00
2023-04-25T07:20:05.154Z,79.30
2023-04-25T07:22:10.445Z,79.00
2023-04-25T07:24:18.516Z,79.20
2023-04-25T07:26:26.344Z,78.60
2023-04-25T07:28:53.869Z,76.60
2023-04-25T07:30:59.319Z,76.30
2023-04-25T07:33:07.304Z,78.00
2023-04-25T07:35:13.210Z,78.40
2023-04-25T07:37:19.936Z,78.30
2023-04-25T07:39:41.671Z,76.70
2023-04-25T07:41:46.819Z,77.70
2023-04-25T07:43:57.649Z,74.80
2023-04-25T07:46:04.082Z,76.80
2023-04-25T07:48:14.414Z,77.60
2023-04-25T07:50:19.935Z,76.80
2023-04-25T07:52:25.684Z,74.70
2023-04-25T07:54:39.298Z,75.60
2023-04-25T07:56:53.691Z,76.00
2023-04-25T07:59:04.829Z,78.10
2023-04-25T08:01:09.939Z,75.60
2023-04-25T08:03:28.606Z,75.20
2023-04-25T08:05:35.052Z,75.10
2023-04-25T08:07:44.688Z,75.60
2023-04-25T08:09:50.456Z,76.60
2023-04-25T08:12:03.063Z,75.40
2023-04-25T08:14:10.959Z,73.40
2023-04-25T08:16:17.740Z,75.50
2023-04-25T08:18:22.935Z,77.20
2023-04-25T08:20:31.797Z,72.10
2023-04-25T08:22:39.400Z,72.60
2023-04-25T08:25:05.262Z,72.50
2023-04-25T08:27:12.274Z,75.20
2023-04-25T08:29:17.475Z,71.00
2023-04-25T08:31:23.605Z,72.60
2023-04-25T08:33:35.807Z,71.80
2023-04-25T08:35:54.111Z,73.50
2023-04-25T08:37:59.381Z,73.70
2023-04-25T08:40:08.236Z,72.40
2023-04-25T08:42:36.825Z,71.70
2023-04-25T08:44:42.882Z,74.60
2023-04-25T08:46:52.109Z,72.40
2023-04-25T08:49:06.595Z,73.00
2023-04-25T08:51:19.959Z,69.90
2023-04-25T08:53:31.664Z,71.00
2023-04-25T08:55:41.388Z,70.10
2023-04-25T08:57:48.516Z,70.00
2023-04-25T08:59:56.740Z,69.70
2023-04-25T09:02:02.980Z,72.50
2023-04-25T09:04:10.529Z,70.40
2023-04-25T09:06:18.944Z,72.00
2023-04-25T09:08:24.196Z,72.30
2023-04-25T09:10:29.365Z,70.50
2023-04-25T09:12:36.684Z,73.00
2023-04-25T09:14:43.871Z,71.70
2023-04-25T09:17:09.484Z,75.30
2023-04-25T09:19:38.984Z,73.70
2023-04-25T09:21:58.903Z,78.90
2023-04-25T09:24:04.460Z,77.40
2023-04-25T09:26:11.948Z,77.50
2023-04-25T09:28:17.412Z,75.10
2023-04-25T09:30:32.186Z,76.90
2023-04-25T09:33:01.719Z,75.40
2023-04-25T09:35:10.611Z,75.20
2023-04-25T09:37:23.123Z,75.30
2023-04-25T09:39:50.116Z,74.10
2023-04-25T09:41:58.610Z,71.40
2023-04-25T09:44:04.853Z,73.90
2023-04-25T09:46:16.695Z,74.40
2023-04-25T09:48:28.747Z,69.10
2023-04-25T09:50:36.520Z,71.20
2023-04-25T09:52:49.837Z,64.30
2023-04-25T09:54:59.501Z,71.20
2023-04-25T09:57:16.434Z,67.00
2023-04-25T09:59:24.543Z,68.20
2023-04-25T10:01:31.401Z,68.00
2023-04-25T10:03:50.856Z,61.90
2023-04-25T10:06:16.701Z,65.90
2023-04-25T10:08:26.141Z,63.90
2023-04-25T10:10:34.030Z,65.30
2023-04-25T10:12:41.151Z,65.80
2023-04-25T10:14:47.006Z,66.60
2023-04-25T10:16:54.745Z,68.20
2023-04-25T10:19:00.388Z,70.90
2023-04-25T10:21:08.059Z,69.30
2023-04-25T10:23:18.167Z,69.20
2023-04-25T10:25:27.036Z,70.60
2023-04-25T10:27:32.731Z,70.60
2023-04-25T10:29:39.341Z,71.00
2023-04-25T10:31:50.411Z,73.20
2023-04-25T10:33:55.507Z,73.50
2023-04-25T10:36:02.513Z,73.60
2023-04-25T10:38:09.676Z,76.20
2023-04-25T10:40:16.924Z,75.10
2023-04-25T10:42:25.020Z,73.60
2023-04-25T10:44:32.611Z,76.40
2023-04-25T10:46:38.885Z,73.90
2023-04-25T10:48:51.891Z,73.00
2023-04-25T10:51:12.072Z,74.00
2023-04-25T10:53:19.091Z,72.40
2023-04-25T10:55:24.653Z,70.80
2023-04-25T10:57:44.617Z,72.20
2023-04-25T10:59:52.510Z,69.50
2023-04-25T11:01:58.173Z,69.10
2023-04-25T11:04:03.716Z,70.30
2023-04-25T11:06:14.070Z,65.40
2023-04-25T11:08:34.670Z,66.30
2023-04-25T11:10:39.744Z,64.30
2023-04-25T11:12:48.518Z,62.90
2023-04-25T11:14:53.731Z,65.00
2023-04-25T11:17:00.866Z,64.80
2023-04-25T11:19:06.896Z,62.30
2023-04-25T11:21:12.159Z,63.20
2023-04-25T11:23:17.283Z,62.00
2023-04-25T11:25:22.382Z,60.30
2023-04-25T11:27:29.083Z,61.90
2023-04-25T11:29:38.743Z,61.20
2023-04-25T11:31:47.796Z,59.70
2023-04-25T11:33:53.488Z,59.80
2023-04-25T11:35:59.640Z,63.80
2023-04-25T11:38:05.759Z,59.10
2023-04-25T11:40:13.781Z,58.80
2023-04-25T11:42:19.318Z,62.70
2023-04-25T11:44:25.451Z,61.10
2023-04-25T11:46:33.489Z,60.00
2023-04-25T11:48:42.314Z,59.90
2023-04-25T11:50:47.657Z,58.90
2023-04-25T11:52:53.188Z,58.60
2023-04-25T11:54:59.979Z,58.40
2023-04-25T11:57:05.162Z,59.90
2023-04-25T11:59:10.989Z,62.20
2023-04-25T12:01:16.430Z,60.60
2023-04-25T12:03:27.530Z,60.70
2023-04-25T12:05:35.503Z,56.90
2023-04-25T12:07:42.298Z,54.60
2023-04-25T12:09:47.372Z,54.60
2023-04-25T12:11:57.757Z,58.00
2023-04-25T12:14:07.886Z,56.80
2023-04-25T12:16:13.028Z,57.10
2023-04-25T12:18:18.332Z,57.50
2023-04-25T12:20:29.168Z,57.80
2023-04-25T12:22:34.652Z,59.90
2023-04-25T12:24:39.802Z,59.00
2023-04-25T12:26:53.580Z,58.60
2023-04-25T12:28:58.647Z,56.50
2023-04-25T12:31:05.913Z,60.10
2023-04-25T12:33:11.505Z,55.20
2023-04-25T12:35:17.345Z,51.50
2023-04-25T12:37:25.051Z,51.40
2023-04-25T12:39:30.366Z,55.30
2023-04-25T12:41:35.533Z,53.20
2023-04-25T12:43:40.660Z,52.30
2023-04-25T12:45:46.165Z,51.80
2023-04-25T12:47:51.470Z,54.60
2023-04-25T12:49:57.168Z,53.70
2023-04-25T12:52:02.835Z,48.70
2023-04-25T12:54:11.169Z,48.70
2023-04-25T12:56:16.637Z,53.40
2023-04-25T12:58:23.100Z,52.50
2023-04-25T13:00:28.584Z,55.80
2023-04-25T13:02:33.755Z,54.70
2023-04-25T13:04:39.372Z,56.10
2023-04-25T13:06:44.815Z,55.40
2023-04-25T13:08:50.126Z,56.20
2023-04-25T13:10:58.122Z,55.10
2023-04-25T13:13:03.702Z,57.60
2023-04-25T13:15:12.427Z,54.30
2023-04-25T13:17:17.483Z,56.00
2023-04-25T13:19:22.580Z,57.30
2023-04-25T13:21:28.127Z,58.50
2023-04-25T13:23:33.769Z,56.00
2023-04-25T13:25:39.121Z,53.60
2023-04-25T13:27:47.534Z,53.80
2023-04-25T13:29:52.619Z,53.30
2023-04-25T13:31:57.702Z,59.20
2023-04-25T13:34:02.780Z,54.10
2023-04-25T13:36:08.423Z,50.90
2023-04-25T13:38:13.448Z,50.40
2023-04-25T13:40:18.882Z,53.60
2023-04-25T13:42:23.903Z,53.30
2023-04-25T13:44:32.117Z,51.50
2023-04-25T13:48:49.781Z,50.40
2023-04-25T13:50:55.070Z,48.70
2023-04-25T13:53:00.119Z,50.60
2023-04-25T13:55:07.966Z,50.90
2023-04-25T13:57:14.072Z,51.40
2023-04-25T13:59:19.128Z,49.90
2023-04-25T14:01:28.085Z,48.60
2023-04-25T14:03:33.807Z,50.00
2023-04-25T14:05:41.427Z,50.90
2023-04-25T14:07:47.019Z,49.60
2023-04-25T14:09:52.078Z,50.60
2023-04-25T14:11:58.068Z,50.20
2023-04-25T14:14:03.128Z,51.10
2023-04-25T14:16:09.054Z,50.80
2023-04-25T14:18:16.707Z,53.90
2023-04-25T14:20:24.989Z,50.80
2023-04-25T14:22:30.033Z,52.40
2023-04-25T14:24:35.069Z,53.50
2023-04-25T14:26:40.470Z,51.60
2023-04-25T14:28:45.678Z,54.80
2023-04-25T14:30:51.062Z,54.20
2023-04-25T14:32:56.401Z,55.30
2023-04-25T14:35:04.071Z,54.20
2023-04-25T14:37:09.265Z,52.60
2023-04-25T14:39:15.242Z,52.90
2023-04-25T14:41:20.552Z,57.20
2023-04-25T14:43:25.685Z,54.80
2023-04-25T14:45:30.777Z,54.30
2023-04-25T14:47:35.918Z,52.40
2023-04-25T14:49:40.969Z,52.00
2023-04-25T14:51:50.211Z,53.40
2023-04-25T14:53:57.385Z,54.70
2023-04-25T14:56:02.681Z,51.00
2023-04-25T14:58:08.273Z,55.40
2023-04-25T15:00:17.364Z,55.70
2023-04-25T15:02:22.619Z,53.60
2023-04-25T15:04:27.968Z,55.50
2023-04-25T15:06:33.485Z,55.60
2023-04-25T15:08:41.149Z,55.10
2023-04-25T15:10:46.454Z,57.30
2023-04-25T15:12:51.793Z,54.20
2023-04-25T15:14:57.320Z,53.60
2023-04-25T15:17:02.556Z,54.50
2023-04-25T15:19:08.417Z,57.60
2023-04-25T15:21:13.614Z,53.60
2023-04-25T15:23:19.021Z,53.40
2023-04-25T15:25:27.322Z,52.40
2023-04-25T15:27:32.369Z,51.00
2023-04-25T15:29:37.417Z,50.70
2023-04-25T15:31:42.509Z,52.10
2023-04-25T15:33:48.551Z,54.50
2023-04-25T15:35:53.689Z,53.40
2023-04-25T15:37:58.747Z,53.30
2023-04-25T15:40:10.061Z,53.20
2023-04-25T15:42:17.722Z,50.90
2023-04-25T15:44:23.026Z,51.90
2023-04-25T15:46:28.210Z,51.10
2023-04-25T15:48:33.298Z,53.10
2023-04-25T15:50:39.163Z,52.60
2023-04-25T15:52:44.775Z,52.30
2023-04-25T15:54:49.803Z,52.80
2023-04-25T15:56:54.838Z,52.60
2023-04-25T15:59:02.581Z,54.90
2023-04-25T16:01:07.957Z,51.40
2023-04-25T16:03:13.281Z,53.00
2023-04-25T16:05:19.510Z,53.80
2023-04-25T16:07:24.665Z,52.30
2023-04-25T16:09:29.773Z,51.90
2023-04-25T16:11:34.812Z,53.40
2023-04-25T16:13:39.854Z,54.90
2023-04-25T16:15:47.751Z,52.50
2023-04-25T16:17:52.903Z,53.40
2023-04-25T16:19:59.542Z,52.70
2023-04-25T16:22:04.909Z,45.90
2023-04-25T16:24:11.451Z,47.90
2023-04-25T16:26:16.666Z,49.30
2023-04-25T16:28:21.796Z,49.60
2023-04-25T16:30:27.185Z,50.50
2023-04-25T16:32:34.953Z,52.40
2023-04-25T16:34:40.164Z,53.40
2023-04-25T16:36:45.204Z,54.30
2023-04-25T16:38:50.396Z,53.60
2023-04-25T16:40:56.139Z,53.50
2023-04-25T16:43:02.100Z,54.50
2023-04-25T16:45:09.090Z,55.90
2023-04-25T16:47:17.977Z,54.20
2023-04-25T16:49:27.181Z,54.90
2023-04-25T16:51:32.683Z,53.30
2023-04-25T16:53:38.079Z,54.00
2023-04-25T16:55:44.036Z,52.90
2023-04-25T16:57:49.076Z,55.50
2023-04-25T16:59:54.748Z,54.50
2023-04-25T17:01:59.906Z,56.20
2023-04-25T17:04:05.140Z,53.20
2023-04-25T17:06:13.481Z,52.70
2023-04-25T17:08:18.882Z,52.80
2023-04-25T17:10:23.965Z,52.60
2023-04-25T17:12:29.011Z,52.10
2023-04-25T17:14:36.156Z,49.10
2023-04-25T17:16:42.272Z,49.70
2023-04-25T17:18:47.481Z,50.60
2023-04-25T17:20:52.533Z,52.50
2023-04-25T17:23:00.167Z,50.90
2023-04-25T17:25:05.478Z,53.90
2023-04-25T17:27:10.595Z,52.10
2023-04-25T17:29:15.604Z,52.20
2023-04-25T17:31:20.844Z,51.10
2023-04-25T17:33:27.289Z,54.80
2023-04-25T17:35:34.251Z,53.70
2023-04-25T17:37:40.931Z,51.60
2023-04-25T17:39:48.726Z,51.70
2023-04-25T17:41:53.808Z,51.10
2023-04-25T17:43:58.819Z,52.50
2023-04-25T17:46:03.878Z,53.60
2023-04-25T17:48:09.075Z,52.50
2023-04-25T17:50:16.809Z,54.90
2023-04-25T17:52:22.140Z,53.40
2023-04-25T17:54:27.760Z,53.80
2023-04-25T17:56:39.155Z,57.80
2023-04-25T17:58:44.375Z,57.00
2023-04-25T18:00:49.432Z,55.00
2023-04-25T18:02:55.121Z,54.90
2023-04-25T18:05:00.373Z,55.70
2023-04-25T18:07:07.810Z,55.70
2023-04-25T18:09:18.646Z,55.70
2023-04-25T18:11:24.375Z,58.70
2023-04-25T18:13:32.223Z,56.70
2023-04-25T18:15:38.236Z,58.20
2023-04-25T18:17:43.407Z,59.00
2023-04-25T18:19:48.993Z,58.70
2023-04-25T18:21:57.136Z,59.50
2023-04-25T18:24:02.224Z,59.70
2023-04-25T18:26:08.926Z,61.30
2023-04-25T18:28:14.017Z,61.80
2023-04-25T18:30:21.691Z,64.90
2023-04-25T18:32:28.790Z,65.20
2023-04-25T18:34:34.151Z,68.40
2023-04-25T18:36:40.191Z,68.70
2023-04-25T18:38:50.329Z,68.50
2023-04-25T18:41:00.062Z,70.90
2023-04-25T18:43:08.326Z,70.50
2023-04-25T18:45:14.708Z,72.00
2023-04-25T18:47:22.313Z,71.70
2023-04-25T18:49:27.491Z,72.00
2023-04-25T18:51:33.847Z,71.70
2023-04-25T18:53:39.215Z,73.00
2023-04-25T18:55:44.254Z,72.80
2023-04-25T18:57:49.286Z,73.50
2023-04-25T18:59:55.043Z,74.50
2023-04-25T19:02:02.783Z,74.80
2023-04-25T19:04:10.719Z,73.90
2023-04-25T19:06:15.840Z,75.10
2023-04-25T19:08:20.936Z,76.90
2023-04-25T19:10:26.646Z,76.40
2023-04-25T19:12:33.408Z,75.30
2023-04-25T19:14:38.460Z,75.10
2023-04-25T19:16:43.581Z,76.80
2023-04-25T19:18:52.153Z,71.40
2023-04-25T19:21:00.532Z,72.80
2023-04-25T19:23:05.625Z,75.20
2023-04-25T19:25:11.849Z,74.20
2023-04-25T19:27:17.216Z,71.80
2023-04-25T19:29:22.239Z,73.30
2023-04-25T19:31:27.672Z,72.20
2023-04-25T19:33:33.182Z,71.80
2023-04-25T19:35:38.268Z,72.00
2023-04-25T19:37:47.073Z,72.20
2023-04-25T19:39:52.106Z,72.80
2023-04-25T19:41:58.392Z,72.90
2023-04-25T19:44:07.280Z,73.50
2023-04-25T19:46:12.725Z,74.00
2023-04-25T19:48:18.965Z,74.90
2023-04-25T19:50:24.436Z,75.00
2023-04-25T19:52:31.974Z,75.60
2023-04-25T19:54:39.638Z,74.10
2023-04-25T19:56:45.995Z,74.70
2023-04-25T19:58:52.726Z,73.30
2023-04-25T20:00:58.793Z,73.40
2023-04-25T20:03:04.743Z,74.50
2023-04-25T20:05:12.378Z,75.10
2023-04-25T20:07:20.179Z,75.30
2023-04-25T20:09:26.356Z,76.60
2023-04-25T20:11:35.428Z,76.00
2023-04-25T20:13:41.106Z,78.00
2023-04-25T20:15:46.197Z,77.40
2023-04-25T20:17:51.469Z,75.90
2023-04-25T20:19:56.658Z,75.50
2023-04-25T20:22:01.975Z,76.30
2023-04-25T20:24:08.952Z,74.50
2023-04-25T20:26:14.240Z,74.70
2023-04-25T20:28:23.183Z,73.80
2023-04-25T20:30:28.345Z,73.60
2023-04-25T20:32:34.754Z,72.40
2023-04-25T20:34:40.097Z,73.30
2023-04-25T20:36:45.253Z,71.50
2023-04-25T20:38:50.738Z,71.70
2023-04-25T20:40:56.612Z,72.20
2023-04-25T20:43:02.464Z,72.30
2023-04-25T20:45:13.631Z,73.70
2023-04-25T20:47:19.166Z,74.10
2023-04-25T20:49:24.204Z,72.80
2023-04-25T20:51:30.407Z,73.10
2023-04-25T20:53:35.982Z,73.50
2023-04-25T20:55:41.786Z,75.10
2023-04-25T20:57:46.847Z,74.90
2023-04-25T20:59:52.857Z,76.00
2023-04-25T21:02:00.573Z,74.80
2023-04-25T21:04:06.677Z,73.90
2023-04-25T21:06:12.058Z,74.30
2023-04-25T21:08:17.648Z,75.60
2023-04-25T21:10:23.030Z,75.80
2023-04-25T21:12:28.171Z,75.10
2023-04-25T21:14:34.120Z,76.30
2023-04-25T21:16:39.253Z,77.70
2023-04-25T21:18:47.231Z,76.70
2023-04-25T21:20:52.429Z,78.30
2023-04-25T21:22:57.461Z,79.40
2023-04-25T21:25:06.177Z,78.70
2023-04-25T21:27:11.182Z,79.50
2023-04-25T21:29:16.465Z,79.50
2023-04-25T21:31:21.718Z,79.40
2023-04-25T21:33:26.750Z,79.60
2023-04-25T21:35:34.403Z,79.60
2023-04-25T21:37:39.420Z,80.20
2023-04-25T21:39:44.736Z,81.20
2023-04-25T21:41:49.831Z,81.10
2023-04-25T21:43:54.883Z,81.20
2023-04-25T21:46:21.733Z,82.30
2023-04-25T21:48:25.236Z,82.40
2023-04-25T21:50:33.790Z,82.60
2023-04-25T21:52:40.678Z,83.00
2023-04-25T21:54:47.017Z,84.00
2023-04-25T21:56:52.093Z,84.00
2023-04-25T21:58:57.416Z,83.90
2023-04-25T22:01:03.205Z,84.60
2023-04-25T22:03:09.132Z,84.60
2023-04-25T22:05:14.790Z,84.80
2023-04-25T22:07:22.375Z,84.70
2023-04-25T22:09:27.654Z,85.10
2023-04-25T22:11:32.665Z,85.10
2023-04-25T22:13:38.754Z,85.30
2023-04-25T22:15:44.176Z,86.20
2023-04-25T22:17:49.580Z,86.60
2023-04-25T22:19:54.777Z,86.80
2023-04-25T22:21:59.977Z,86.20
2023-04-25T22:24:08.439Z,86.00
2023-04-25T22:26:13.493Z,87.10
2023-04-25T22:28:18.645Z,86.20
2023-04-25T22:30:24.479Z,86.20
2023-04-25T22:32:29.550Z,86.00
2023-04-25T22:34:34.585Z,86.00
2023-04-25T22:36:39.796Z,86.70
2023-04-25T22:38:44.832Z,86.30
2023-04-25T22:40:52.503Z,87.10
2023-04-25T22:42:57.978Z,87.70
2023-04-25T22:45:03.386Z,86.70
2023-04-25T22:47:09.101Z,86.60
2023-04-25T22:49:14.699Z,87.10
2023-04-25T22:51:19.731Z,87.60
2023-04-25T22:53:24.815Z,87.20
2023-04-25T22:55:29.868Z,86.90
2023-04-25T22:57:40.344Z,87.50
2023-04-25T22:59:45.733Z,87.60
2023-04-25T23:01:51.673Z,87.60
2023-04-25T23:03:57.901Z,87.50
2023-04-25T23:06:03.233Z,86.40
2023-04-25T23:08:08.352Z,87.10
2023-04-25T23:10:14.377Z,87.80
2023-04-25T23:12:21.313Z,87.20
2023-04-25T23:14:29.234Z,88.20
2023-04-25T23:16:34.300Z,88.10
2023-04-25T23:18:40.397Z,88.30
2023-04-25T23:20:46.110Z,87.50
2023-04-25T23:22:52.100Z,88.10
2023-04-25T23:24:57.117Z,88.20
2023-04-25T23:27:03.649Z,88.70
2023-04-25T23:29:09.094Z,88.70
2023-04-25T23:31:16.735Z,88.70
2023-04-25T23:33:22.316Z,89.00
2023-04-25T23:35:27.806Z,89.10
2023-04-25T23:37:33.313Z,88.70
2023-04-25T23:41:46.107Z,88.50
2023-04-25T23:43:51.558Z,89.00
2023-04-25T23:45:57.048Z,89.30
2023-04-25T23:48:05.546Z,89.50
2023-04-25T23:50:13.490Z,90.00
2023-04-25T23:52:18.975Z,90.10
2023-04-25T23:54:24.070Z,90.30
2023-04-25T23:56:30.296Z,89.60
2023-04-25T23:58:35.480Z,90.00
